sensor_id;sensor_type;location;lat;lon;timestamp;temperature;humidity
1179;DHT22;578;48.408;10.004;2022-10-31T00:01:19;8.00;99.90
1179;DHT22;578;48.408;10.004;2022-10-31T00:03:46;7.90;99.90
1179;DHT22;578;48.408;10.004;2022-10-31T00:06:13;8.00;99.90
1179;DHT22;578;48.408;10.004;2022-10-31T00:08:40;8.00;99.90
1179;DHT22;578;48.408;10.004;2022-10-31T00:11:10;7.90;99.90
1179;DHT22;578;48.408;10.004;2022-10-31T00:13:37;7.90;99.90
1179;DHT22;578;48.408;10.004;2022-10-31T00:16:04;7.80;99.90
1179;DHT22;578;48.408;10.004;2022-10-31T00:18:31;7.80;99.90
1179;DHT22;578;48.408;10.004;2022-10-31T00:21:01;7.80;99.90
1179;DHT22;578;48.408;10.004;2022-10-31T00:23:28;7.80;99.90
1179;DHT22;578;48.408;10.004;2022-10-31T00:26:00;7.80;99.90
1179;DHT22;578;48.408;10.004;2022-10-31T00:28:28;7.80;99.90
1179;DHT22;578;48.408;10.004;2022-10-31T00:30:58;7.80;99.90
1179;DHT22;578;48.408;10.004;2022-10-31T00:33:25;7.80;99.90
1179;DHT22;578;48.408;10.004;2022-10-31T00:35:52;7.80;99.90
1179;DHT22;578;48.408;10.004;2022-10-31T00:38:19;7.80;99.90
1179;DHT22;578;48.408;10.004;2022-10-31T00:40:45;7.80;99.90
1179;DHT22;578;48.408;10.004;2022-10-31T00:43:12;7.80;99.90
1179;DHT22;578;48.408;10.004;2022-10-31T00:45:41;7.80;99.90
1179;DHT22;578;48.408;10.004;2022-10-31T00:48:07;7.80;99.90
1179;DHT22;578;48.408;10.004;2022-10-31T00:50:34;7.80;99.90
1179;DHT22;578;48.408;10.004;2022-10-31T00:53:01;7.70;99.90
1179;DHT22;578;48.408;10.004;2022-10-31T00:55:28;7.70;99.90
1179;DHT22;578;48.408;10.004;2022-10-31T00:57:54;7.80;99.90
1179;DHT22;578;48.408;10.004;2022-10-31T01:00:21;7.80;99.90
1179;DHT22;578;48.408;10.004;2022-10-31T01:02:49;7.80;99.90
1179;DHT22;578;48.408;10.004;2022-10-31T01:05:16;7.80;99.90
1179;DHT22;578;48.408;10.004;2022-10-31T01:07:43;7.70;99.90
1179;DHT22;578;48.408;10.004;2022-10-31T01:10:10;7.70;99.90
1179;DHT22;578;48.408;10.004;2022-10-31T01:12:38;7.60;99.90
1179;DHT22;578;48.408;10.004;2022-10-31T01:15:06;7.50;99.90
1179;DHT22;578;48.408;10.004;2022-10-31T01:17:33;7.60;99.90
1179;DHT22;578;48.408;10.004;2022-10-31T01:20:02;7.60;99.90
1179;DHT22;578;48.408;10.004;2022-10-31T01:22:29;7.50;99.90
1179;DHT22;578;48.408;10.004;2022-10-31T01:24:55;7.40;99.90
1179;DHT22;578;48.408;10.004;2022-10-31T01:27:22;7.40;99.90
1179;DHT22;578;48.408;10.004;2022-10-31T01:29:49;7.50;99.90
1179;DHT22;578;48.408;10.004;2022-10-31T01:32:16;7.40;99.90
1179;DHT22;578;48.408;10.004;2022-10-31T01:34:42;7.40;99.90
1179;DHT22;578;48.408;10.004;2022-10-31T01:37:10;7.40;99.90
1179;DHT22;578;48.408;10.004;2022-10-31T01:39:37;7.40;99.90
1179;DHT22;578;48.408;10.004;2022-10-31T01:42:04;7.40;99.90
1179;DHT22;578;48.408;10.004;2022-10-31T01:44:51;7.30;99.90
1179;DHT22;578;48.408;10.004;2022-10-31T01:47:21;7.20;99.90
1179;DHT22;578;48.408;10.004;2022-10-31T01:49:53;7.20;99.90
1179;DHT22;578;48.408;10.004;2022-10-31T01:52:24;7.20;99.90
1179;DHT22;578;48.408;10.004;2022-10-31T01:54:54;7.20;99.90
1179;DHT22;578;48.408;10.004;2022-10-31T01:57:23;7.20;99.90
1179;DHT22;578;48.408;10.004;2022-10-31T01:59:56;7.30;99.90
1179;DHT22;578;48.408;10.004;2022-10-31T02:02:23;7.20;99.90
1179;DHT22;578;48.408;10.004;2022-10-31T02:04:52;7.20;99.90
1179;DHT22;578;48.408;10.004;2022-10-31T02:07:24;7.10;99.90
1179;DHT22;578;48.408;10.004;2022-10-31T02:09:53;7.00;99.90
1179;DHT22;578;48.408;10.004;2022-10-31T02:12:20;6.90;99.90
1179;DHT22;578;48.408;10.004;2022-10-31T02:14:47;6.90;99.90
1179;DHT22;578;48.408;10.004;2022-10-31T02:17:14;7.00;99.90
1179;DHT22;578;48.408;10.004;2022-10-31T02:19:54;7.00;99.90
1179;DHT22;578;48.408;10.004;2022-10-31T02:22:27;7.00;99.90
1179;DHT22;578;48.408;10.004;2022-10-31T02:25:13;6.90;99.90
1179;DHT22;578;48.408;10.004;2022-10-31T02:28:00;6.90;99.90
1179;DHT22;578;48.408;10.004;2022-10-31T02:30:37;6.80;99.90
1179;DHT22;578;48.408;10.004;2022-10-31T02:33:16;6.80;99.90
1179;DHT22;578;48.408;10.004;2022-10-31T02:35:53;6.90;99.90
1179;DHT22;578;48.408;10.004;2022-10-31T02:38:27;6.80;99.90
1179;DHT22;578;48.408;10.004;2022-10-31T02:41:01;6.90;99.90
1179;DHT22;578;48.408;10.004;2022-10-31T02:43:35;6.90;99.90
1179;DHT22;578;48.408;10.004;2022-10-31T02:46:10;6.70;99.90
1179;DHT22;578;48.408;10.004;2022-10-31T02:48:44;6.80;99.90
1179;DHT22;578;48.408;10.004;2022-10-31T02:51:12;6.80;99.90
1179;DHT22;578;48.408;10.004;2022-10-31T02:53:39;6.80;99.90
1179;DHT22;578;48.408;10.004;2022-10-31T02:56:11;6.70;99.90
1179;DHT22;578;48.408;10.004;2022-10-31T02:58:40;6.90;99.90
1179;DHT22;578;48.408;10.004;2022-10-31T03:01:22;6.80;99.90
1179;DHT22;578;48.408;10.004;2022-10-31T03:04:15;6.80;99.90
1179;DHT22;578;48.408;10.004;2022-10-31T03:06:48;6.80;99.90
1179;DHT22;578;48.408;10.004;2022-10-31T03:09:22;6.70;99.90
1179;DHT22;578;48.408;10.004;2022-10-31T03:12:02;6.70;99.90
1179;DHT22;578;48.408;10.004;2022-10-31T03:14:36;6.70;99.90
1179;DHT22;578;48.408;10.004;2022-10-31T03:17:09;6.60;99.90
1179;DHT22;578;48.408;10.004;2022-10-31T03:19:41;6.70;99.90
1179;DHT22;578;48.408;10.004;2022-10-31T03:22:16;6.70;99.90
1179;DHT22;578;48.408;10.004;2022-10-31T03:24:43;6.70;99.90
1179;DHT22;578;48.408;10.004;2022-10-31T03:27:13;6.70;99.90
1179;DHT22;578;48.408;10.004;2022-10-31T03:29:42;6.70;99.90
1179;DHT22;578;48.408;10.004;2022-10-31T03:32:12;6.70;99.90
1179;DHT22;578;48.408;10.004;2022-10-31T03:34:43;6.70;99.90
1179;DHT22;578;48.408;10.004;2022-10-31T03:37:12;6.70;99.90
1179;DHT22;578;48.408;10.004;2022-10-31T03:39:42;6.60;99.90
1179;DHT22;578;48.408;10.004;2022-10-31T03:42:12;6.60;99.90
1179;DHT22;578;48.408;10.004;2022-10-31T03:44:43;6.60;99.90
1179;DHT22;578;48.408;10.004;2022-10-31T03:47:12;6.70;99.90
1179;DHT22;578;48.408;10.004;2022-10-31T03:49:39;6.60;99.90
1179;DHT22;578;48.408;10.004;2022-10-31T03:52:13;6.50;99.90
1179;DHT22;578;48.408;10.004;2022-10-31T03:54:46;6.70;99.90
1179;DHT22;578;48.408;10.004;2022-10-31T03:57:16;6.60;99.90
1179;DHT22;578;48.408;10.004;2022-10-31T03:59:48;6.50;99.90
1179;DHT22;578;48.408;10.004;2022-10-31T04:02:20;6.40;99.90
1179;DHT22;578;48.408;10.004;2022-10-31T04:04:49;6.40;99.90
1179;DHT22;578;48.408;10.004;2022-10-31T04:07:18;6.40;99.90
1179;DHT22;578;48.408;10.004;2022-10-31T04:09:47;6.40;99.90
1179;DHT22;578;48.408;10.004;2022-10-31T04:12:16;6.40;99.90
1179;DHT22;578;48.408;10.004;2022-10-31T04:14:46;6.50;99.90
1179;DHT22;578;48.408;10.004;2022-10-31T04:17:17;6.40;99.90
1179;DHT22;578;48.408;10.004;2022-10-31T04:19:45;6.40;99.90
1179;DHT22;578;48.408;10.004;2022-10-31T04:22:12;6.40;99.90
1179;DHT22;578;48.408;10.004;2022-10-31T04:24:40;6.40;99.90
1179;DHT22;578;48.408;10.004;2022-10-31T04:27:07;6.30;99.90
1179;DHT22;578;48.408;10.004;2022-10-31T04:29:34;6.30;99.90
1179;DHT22;578;48.408;10.004;2022-10-31T04:32:00;6.30;99.90
1179;DHT22;578;48.408;10.004;2022-10-31T04:34:27;6.30;99.90
1179;DHT22;578;48.408;10.004;2022-10-31T04:36:54;6.30;99.90
1179;DHT22;578;48.408;10.004;2022-10-31T04:39:21;6.30;99.90
1179;DHT22;578;48.408;10.004;2022-10-31T04:41:49;6.30;99.90
1179;DHT22;578;48.408;10.004;2022-10-31T04:44:15;6.30;99.90
1179;DHT22;578;48.408;10.004;2022-10-31T04:46:42;6.20;99.90
1179;DHT22;578;48.408;10.004;2022-10-31T04:49:09;6.30;99.90
1179;DHT22;578;48.408;10.004;2022-10-31T04:51:36;6.20;99.90
1179;DHT22;578;48.408;10.004;2022-10-31T04:54:02;6.30;99.90
1179;DHT22;578;48.408;10.004;2022-10-31T04:56:29;6.30;99.90
1179;DHT22;578;48.408;10.004;2022-10-31T04:58:57;6.30;99.90
1179;DHT22;578;48.408;10.004;2022-10-31T05:01:24;6.20;99.90
1179;DHT22;578;48.408;10.004;2022-10-31T05:03:51;6.20;99.90
1179;DHT22;578;48.408;10.004;2022-10-31T05:06:18;6.10;99.90
1179;DHT22;578;48.408;10.004;2022-10-31T05:08:44;6.10;99.90
1179;DHT22;578;48.408;10.004;2022-10-31T05:11:11;6.20;99.90
1179;DHT22;578;48.408;10.004;2022-10-31T05:13:38;6.10;99.90
1179;DHT22;578;48.408;10.004;2022-10-31T05:16:06;6.10;99.90
1179;DHT22;578;48.408;10.004;2022-10-31T05:18:33;6.10;99.90
1179;DHT22;578;48.408;10.004;2022-10-31T05:21:00;6.10;99.90
1179;DHT22;578;48.408;10.004;2022-10-31T05:23:27;6.00;99.90
1179;DHT22;578;48.408;10.004;2022-10-31T05:25:53;6.00;99.90
1179;DHT22;578;48.408;10.004;2022-10-31T05:28:20;6.00;99.90
1179;DHT22;578;48.408;10.004;2022-10-31T05:30:47;6.00;99.90
1179;DHT22;578;48.408;10.004;2022-10-31T05:33:15;6.00;99.90
1179;DHT22;578;48.408;10.004;2022-10-31T05:35:42;5.90;99.90
1179;DHT22;578;48.408;10.004;2022-10-31T05:38:08;6.00;99.90
1179;DHT22;578;48.408;10.004;2022-10-31T05:40:35;5.90;99.90
1179;DHT22;578;48.408;10.004;2022-10-31T05:43:02;5.90;99.90
1179;DHT22;578;48.408;10.004;2022-10-31T05:45:28;5.90;99.90
1179;DHT22;578;48.408;10.004;2022-10-31T05:47:57;5.90;99.90
1179;DHT22;578;48.408;10.004;2022-10-31T05:50:27;5.90;99.90
1179;DHT22;578;48.408;10.004;2022-10-31T05:52:55;5.90;99.90
1179;DHT22;578;48.408;10.004;2022-10-31T05:55:23;5.90;99.90
1179;DHT22;578;48.408;10.004;2022-10-31T05:57:51;5.90;99.90
1179;DHT22;578;48.408;10.004;2022-10-31T06:00:18;5.90;99.90
1179;DHT22;578;48.408;10.004;2022-10-31T06:02:44;5.90;99.90
1179;DHT22;578;48.408;10.004;2022-10-31T06:05:12;5.90;99.90
1179;DHT22;578;48.408;10.004;2022-10-31T06:07:40;6.00;99.90
1179;DHT22;578;48.408;10.004;2022-10-31T06:10:08;5.90;99.90
1179;DHT22;578;48.408;10.004;2022-10-31T06:12:36;5.90;99.90
1179;DHT22;578;48.408;10.004;2022-10-31T06:15:04;5.90;99.90
1179;DHT22;578;48.408;10.004;2022-10-31T06:17:32;5.90;99.90
1179;DHT22;578;48.408;10.004;2022-10-31T06:19:59;5.90;99.90
1179;DHT22;578;48.408;10.004;2022-10-31T06:22:26;5.90;99.90
1179;DHT22;578;48.408;10.004;2022-10-31T06:24:54;5.90;99.90
1179;DHT22;578;48.408;10.004;2022-10-31T06:27:21;6.00;99.90
1179;DHT22;578;48.408;10.004;2022-10-31T06:29:48;6.10;99.90
1179;DHT22;578;48.408;10.004;2022-10-31T06:32:15;6.10;99.90
1179;DHT22;578;48.408;10.004;2022-10-31T06:34:42;6.30;99.90
1179;DHT22;578;48.408;10.004;2022-10-31T06:37:10;6.30;99.90
1179;DHT22;578;48.408;10.004;2022-10-31T06:39:37;6.30;99.90
1179;DHT22;578;48.408;10.004;2022-10-31T06:42:06;6.40;99.90
1179;DHT22;578;48.408;10.004;2022-10-31T06:44:32;6.40;99.90
1179;DHT22;578;48.408;10.004;2022-10-31T06:46:59;6.40;99.90
1179;DHT22;578;48.408;10.004;2022-10-31T06:49:26;6.50;99.90
1179;DHT22;578;48.408;10.004;2022-10-31T06:51:54;6.60;99.90
1179;DHT22;578;48.408;10.004;2022-10-31T06:54:21;6.60;99.90
1179;DHT22;578;48.408;10.004;2022-10-31T06:56:48;6.80;99.90
1179;DHT22;578;48.408;10.004;2022-10-31T06:59:16;6.90;99.90
1179;DHT22;578;48.408;10.004;2022-10-31T07:01:43;7.00;99.90
1179;DHT22;578;48.408;10.004;2022-10-31T07:04:10;7.10;99.90
1179;DHT22;578;48.408;10.004;2022-10-31T07:06:37;7.30;99.90
1179;DHT22;578;48.408;10.004;2022-10-31T07:09:04;7.40;99.90
1179;DHT22;578;48.408;10.004;2022-10-31T07:11:31;7.50;99.90
1179;DHT22;578;48.408;10.004;2022-10-31T07:13:57;7.70;99.90
1179;DHT22;578;48.408;10.004;2022-10-31T07:16:26;7.80;99.90
1179;DHT22;578;48.408;10.004;2022-10-31T07:18:53;8.00;99.90
1179;DHT22;578;48.408;10.004;2022-10-31T07:21:20;8.30;99.90
1179;DHT22;578;48.408;10.004;2022-10-31T07:23:47;8.60;99.90
1179;DHT22;578;48.408;10.004;2022-10-31T07:26:14;8.90;99.90
1179;DHT22;578;48.408;10.004;2022-10-31T07:28:41;9.20;99.90
1179;DHT22;578;48.408;10.004;2022-10-31T07:31:08;10.50;99.90
1179;DHT22;578;48.408;10.004;2022-10-31T07:33:36;10.70;99.90
1179;DHT22;578;48.408;10.004;2022-10-31T07:36:03;10.40;99.90
1179;DHT22;578;48.408;10.004;2022-10-31T07:38:29;10.40;99.90
1179;DHT22;578;48.408;10.004;2022-10-31T07:40:56;10.60;99.90
1179;DHT22;578;48.408;10.004;2022-10-31T07:43:23;11.20;99.90
1179;DHT22;578;48.408;10.004;2022-10-31T07:45:50;11.60;99.90
1179;DHT22;578;48.408;10.004;2022-10-31T07:48:17;11.60;99.90
1179;DHT22;578;48.408;10.004;2022-10-31T07:50:46;11.30;99.90
1179;DHT22;578;48.408;10.004;2022-10-31T07:53:14;11.20;99.90
1179;DHT22;578;48.408;10.004;2022-10-31T07:55:41;11.30;99.90
1179;DHT22;578;48.408;10.004;2022-10-31T07:58:09;11.40;99.90
1179;DHT22;578;48.408;10.004;2022-10-31T08:00:37;11.40;99.90
1179;DHT22;578;48.408;10.004;2022-10-31T08:03:06;11.30;99.90
1179;DHT22;578;48.408;10.004;2022-10-31T08:05:34;11.30;99.90
1179;DHT22;578;48.408;10.004;2022-10-31T08:08:03;11.20;99.90
1179;DHT22;578;48.408;10.004;2022-10-31T08:10:30;11.20;99.90
1179;DHT22;578;48.408;10.004;2022-10-31T08:12:58;11.20;99.90
1179;DHT22;578;48.408;10.004;2022-10-31T08:15:25;11.40;99.90
1179;DHT22;578;48.408;10.004;2022-10-31T08:17:52;11.60;99.90
1179;DHT22;578;48.408;10.004;2022-10-31T08:20:19;11.90;99.90
1179;DHT22;578;48.408;10.004;2022-10-31T08:22:56;12.40;99.90
1179;DHT22;578;48.408;10.004;2022-10-31T08:25:26;12.50;99.90
1179;DHT22;578;48.408;10.004;2022-10-31T08:27:53;12.70;99.90
1179;DHT22;578;48.408;10.004;2022-10-31T08:30:22;12.90;99.90
1179;DHT22;578;48.408;10.004;2022-10-31T08:32:57;13.20;99.90
1179;DHT22;578;48.408;10.004;2022-10-31T08:35:24;13.00;99.90
1179;DHT22;578;48.408;10.004;2022-10-31T08:37:52;12.90;99.90
1179;DHT22;578;48.408;10.004;2022-10-31T08:40:19;12.70;99.90
1179;DHT22;578;48.408;10.004;2022-10-31T08:42:47;12.80;99.90
1179;DHT22;578;48.408;10.004;2022-10-31T08:45:14;12.90;99.90
1179;DHT22;578;48.408;10.004;2022-10-31T08:47:41;12.90;99.90
1179;DHT22;578;48.408;10.004;2022-10-31T08:50:08;13.00;99.90
1179;DHT22;578;48.408;10.004;2022-10-31T08:52:35;12.90;99.90
1179;DHT22;578;48.408;10.004;2022-10-31T08:55:01;12.90;99.90
1179;DHT22;578;48.408;10.004;2022-10-31T08:57:28;12.90;99.90
1179;DHT22;578;48.408;10.004;2022-10-31T08:59:56;13.00;99.90
1179;DHT22;578;48.408;10.004;2022-10-31T09:02:23;13.00;99.90
1179;DHT22;578;48.408;10.004;2022-10-31T09:04:50;12.70;99.90
1179;DHT22;578;48.408;10.004;2022-10-31T09:07:16;12.80;99.90
1179;DHT22;578;48.408;10.004;2022-10-31T09:09:43;12.90;99.90
1179;DHT22;578;48.408;10.004;2022-10-31T09:12:10;13.20;99.90
1179;DHT22;578;48.408;10.004;2022-10-31T09:14:36;13.40;99.90
1179;DHT22;578;48.408;10.004;2022-10-31T09:17:04;13.60;99.90
1179;DHT22;578;48.408;10.004;2022-10-31T09:19:31;13.30;99.90
1179;DHT22;578;48.408;10.004;2022-10-31T09:21:58;13.50;99.90
1179;DHT22;578;48.408;10.004;2022-10-31T09:24:24;13.60;99.90
1179;DHT22;578;48.408;10.004;2022-10-31T09:26:51;13.70;99.90
1179;DHT22;578;48.408;10.004;2022-10-31T09:29:18;13.50;99.90
1179;DHT22;578;48.408;10.004;2022-10-31T09:31:44;13.30;99.90
1179;DHT22;578;48.408;10.004;2022-10-31T09:37:35;13.60;99.90
1179;DHT22;578;48.408;10.004;2022-10-31T09:40:02;13.90;99.90
1179;DHT22;578;48.408;10.004;2022-10-31T09:42:49;13.80;99.90
1179;DHT22;578;48.408;10.004;2022-10-31T09:45:24;13.90;99.90
1179;DHT22;578;48.408;10.004;2022-10-31T09:48:05;13.90;99.90
1179;DHT22;578;48.408;10.004;2022-10-31T09:50:40;13.80;99.90
1179;DHT22;578;48.408;10.004;2022-10-31T09:53:13;13.80;99.90
1179;DHT22;578;48.408;10.004;2022-10-31T09:55:44;13.90;99.90
1179;DHT22;578;48.408;10.004;2022-10-31T09:58:15;13.80;99.90
1179;DHT22;578;48.408;10.004;2022-10-31T10:00:43;13.90;99.90
1179;DHT22;578;48.408;10.004;2022-10-31T10:03:15;14.10;99.90
1179;DHT22;578;48.408;10.004;2022-10-31T10:05:53;14.20;99.90
1179;DHT22;578;48.408;10.004;2022-10-31T10:08:25;14.00;99.90
1179;DHT22;578;48.408;10.004;2022-10-31T10:10:58;14.10;99.90
1179;DHT22;578;48.408;10.004;2022-10-31T10:13:45;14.20;99.90
1179;DHT22;578;48.408;10.004;2022-10-31T10:16:25;14.20;99.90
1179;DHT22;578;48.408;10.004;2022-10-31T10:19:06;14.40;99.90
1179;DHT22;578;48.408;10.004;2022-10-31T10:21:41;14.50;99.90
1179;DHT22;578;48.408;10.004;2022-10-31T10:24:25;14.50;99.90
1179;DHT22;578;48.408;10.004;2022-10-31T10:27:06;14.60;99.90
1179;DHT22;578;48.408;10.004;2022-10-31T10:29:40;14.40;99.90
1179;DHT22;578;48.408;10.004;2022-10-31T10:32:14;14.50;99.90
1179;DHT22;578;48.408;10.004;2022-10-31T10:34:46;14.60;99.90
1179;DHT22;578;48.408;10.004;2022-10-31T10:37:22;14.70;99.90
1179;DHT22;578;48.408;10.004;2022-10-31T10:39:55;14.60;99.90
1179;DHT22;578;48.408;10.004;2022-10-31T10:42:26;14.80;99.90
1179;DHT22;578;48.408;10.004;2022-10-31T10:45:15;14.90;99.90
1179;DHT22;578;48.408;10.004;2022-10-31T10:48:06;14.70;99.90
1179;DHT22;578;48.408;10.004;2022-10-31T10:50:39;14.50;99.90
1179;DHT22;578;48.408;10.004;2022-10-31T10:53:16;14.60;99.90
1179;DHT22;578;48.408;10.004;2022-10-31T10:55:52;14.60;99.90
1179;DHT22;578;48.408;10.004;2022-10-31T10:58:22;14.70;99.90
1179;DHT22;578;48.408;10.004;2022-10-31T11:00:50;15.20;99.90
1179;DHT22;578;48.408;10.004;2022-10-31T11:03:18;15.30;99.90
1179;DHT22;578;48.408;10.004;2022-10-31T11:05:50;15.40;99.90
1179;DHT22;578;48.408;10.004;2022-10-31T11:08:24;15.40;99.90
1179;DHT22;578;48.408;10.004;2022-10-31T11:10:58;15.50;99.90
1179;DHT22;578;48.408;10.004;2022-10-31T11:13:25;15.50;99.90
1179;DHT22;578;48.408;10.004;2022-10-31T11:16:00;15.50;99.90
1179;DHT22;578;48.408;10.004;2022-10-31T11:18:31;15.70;99.90
1179;DHT22;578;48.408;10.004;2022-10-31T11:20:59;15.80;99.90
1179;DHT22;578;48.408;10.004;2022-10-31T11:23:28;15.70;99.90
1179;DHT22;578;48.408;10.004;2022-10-31T11:26:00;15.70;99.90
1179;DHT22;578;48.408;10.004;2022-10-31T11:28:28;15.90;99.90
1179;DHT22;578;48.408;10.004;2022-10-31T11:30:56;16.20;99.90
1179;DHT22;578;48.408;10.004;2022-10-31T11:33:28;16.10;99.90
1179;DHT22;578;48.408;10.004;2022-10-31T11:35:55;16.20;99.90
1179;DHT22;578;48.408;10.004;2022-10-31T11:38:24;16.40;99.90
1179;DHT22;578;48.408;10.004;2022-10-31T11:41:00;16.20;99.90
1179;DHT22;578;48.408;10.004;2022-10-31T11:43:31;16.30;99.90
1179;DHT22;578;48.408;10.004;2022-10-31T11:45:58;16.40;99.90
1179;DHT22;578;48.408;10.004;2022-10-31T11:48:25;16.70;99.90
1179;DHT22;578;48.408;10.004;2022-10-31T11:50:55;16.20;99.90
1179;DHT22;578;48.408;10.004;2022-10-31T11:53:26;16.40;99.90
1179;DHT22;578;48.408;10.004;2022-10-31T11:56:09;16.50;99.90
1179;DHT22;578;48.408;10.004;2022-10-31T11:58:37;16.40;99.90
1179;DHT22;578;48.408;10.004;2022-10-31T12:01:04;16.30;99.90
1179;DHT22;578;48.408;10.004;2022-10-31T12:03:39;16.40;99.90
1179;DHT22;578;48.408;10.004;2022-10-31T12:06:10;16.30;99.90
1179;DHT22;578;48.408;10.004;2022-10-31T12:08:40;16.20;99.90
1179;DHT22;578;48.408;10.004;2022-10-31T12:11:15;16.40;99.90
1179;DHT22;578;48.408;10.004;2022-10-31T12:13:54;16.40;99.90
1179;DHT22;578;48.408;10.004;2022-10-31T12:16:29;16.30;99.90
1179;DHT22;578;48.408;10.004;2022-10-31T12:19:02;16.20;99.90
1179;DHT22;578;48.408;10.004;2022-10-31T12:21:49;16.30;99.90
1179;DHT22;578;48.408;10.004;2022-10-31T12:24:34;16.30;99.90
1179;DHT22;578;48.408;10.004;2022-10-31T12:27:13;16.20;99.90
1179;DHT22;578;48.408;10.004;2022-10-31T12:29:56;16.20;99.90
1179;DHT22;578;48.408;10.004;2022-10-31T12:32:40;16.20;99.90
1179;DHT22;578;48.408;10.004;2022-10-31T12:35:25;16.20;99.90
1179;DHT22;578;48.408;10.004;2022-10-31T12:40:58;16.30;99.90
1179;DHT22;578;48.408;10.004;2022-10-31T12:43:40;16.40;99.90
1179;DHT22;578;48.408;10.004;2022-10-31T12:46:16;16.50;99.90
1179;DHT22;578;48.408;10.004;2022-10-31T12:48:57;16.50;99.90
1179;DHT22;578;48.408;10.004;2022-10-31T12:51:38;16.50;99.90
1179;DHT22;578;48.408;10.004;2022-10-31T12:54:20;16.40;99.90
1179;DHT22;578;48.408;10.004;2022-10-31T12:56:56;16.50;99.90
1179;DHT22;578;48.408;10.004;2022-10-31T12:59:31;16.60;99.90
1179;DHT22;578;48.408;10.004;2022-10-31T13:02:02;16.60;99.90
1179;DHT22;578;48.408;10.004;2022-10-31T13:04:41;16.80;99.90
1179;DHT22;578;48.408;10.004;2022-10-31T13:07:12;16.80;99.90
1179;DHT22;578;48.408;10.004;2022-10-31T13:09:45;16.80;99.90
1179;DHT22;578;48.408;10.004;2022-10-31T13:12:17;16.70;99.90
1179;DHT22;578;48.408;10.004;2022-10-31T13:14:50;16.70;99.90
1179;DHT22;578;48.408;10.004;2022-10-31T13:17:24;16.60;99.90
1179;DHT22;578;48.408;10.004;2022-10-31T13:19:57;16.50;99.90
1179;DHT22;578;48.408;10.004;2022-10-31T13:22:27;16.30;99.90
1179;DHT22;578;48.408;10.004;2022-10-31T13:25:10;16.30;99.90
1179;DHT22;578;48.408;10.004;2022-10-31T13:27:44;16.30;99.90
1179;DHT22;578;48.408;10.004;2022-10-31T13:30:15;16.30;99.90
1179;DHT22;578;48.408;10.004;2022-10-31T13:32:47;16.30;99.90
1179;DHT22;578;48.408;10.004;2022-10-31T13:35:22;16.20;99.90
1179;DHT22;578;48.408;10.004;2022-10-31T13:37:57;16.20;99.90
1179;DHT22;578;48.408;10.004;2022-10-31T13:40:34;16.20;99.90
1179;DHT22;578;48.408;10.004;2022-10-31T13:43:07;16.20;99.90
1179;DHT22;578;48.408;10.004;2022-10-31T13:45:47;16.30;99.90
1179;DHT22;578;48.408;10.004;2022-10-31T13:48:32;16.30;99.90
1179;DHT22;578;48.408;10.004;2022-10-31T13:51:01;16.30;99.90
1179;DHT22;578;48.408;10.004;2022-10-31T13:53:40;16.40;99.90
1179;DHT22;578;48.408;10.004;2022-10-31T13:56:16;16.40;99.90
1179;DHT22;578;48.408;10.004;2022-10-31T13:58:58;16.20;99.90
1179;DHT22;578;48.408;10.004;2022-10-31T14:01:27;16.20;99.90
1179;DHT22;578;48.408;10.004;2022-10-31T14:04:01;16.40;99.90
1179;DHT22;578;48.408;10.004;2022-10-31T14:06:40;16.50;99.90
1179;DHT22;578;48.408;10.004;2022-10-31T14:09:19;16.50;99.90
1179;DHT22;578;48.408;10.004;2022-10-31T14:11:48;16.40;99.90
1179;DHT22;578;48.408;10.004;2022-10-31T14:14:15;16.40;99.90
1179;DHT22;578;48.408;10.004;2022-10-31T14:16:45;16.50;99.90
1179;DHT22;578;48.408;10.004;2022-10-31T14:19:18;16.50;99.90
1179;DHT22;578;48.408;10.004;2022-10-31T14:21:47;16.70;99.90
1179;DHT22;578;48.408;10.004;2022-10-31T14:24:16;16.70;99.90
1179;DHT22;578;48.408;10.004;2022-10-31T14:26:57;16.60;99.90
1179;DHT22;578;48.408;10.004;2022-10-31T14:29:27;16.60;99.90
1179;DHT22;578;48.408;10.004;2022-10-31T14:31:59;16.70;99.90
1179;DHT22;578;48.408;10.004;2022-10-31T14:34:29;16.60;99.90
1179;DHT22;578;48.408;10.004;2022-10-31T14:37:13;16.70;99.90
1179;DHT22;578;48.408;10.004;2022-10-31T14:39:51;16.80;99.90
1179;DHT22;578;48.408;10.004;2022-10-31T14:42:31;16.80;99.90
1179;DHT22;578;48.408;10.004;2022-10-31T14:45:12;16.70;99.90
1179;DHT22;578;48.408;10.004;2022-10-31T14:47:55;16.60;99.90
1179;DHT22;578;48.408;10.004;2022-10-31T14:50:37;16.60;99.90
1179;DHT22;578;48.408;10.004;2022-10-31T14:53:14;16.50;99.90
1179;DHT22;578;48.408;10.004;2022-10-31T14:55:45;16.40;99.90
1179;DHT22;578;48.408;10.004;2022-10-31T14:58:15;16.30;99.90
1179;DHT22;578;48.408;10.004;2022-10-31T15:00:44;16.20;99.90
1179;DHT22;578;48.408;10.004;2022-10-31T15:03:15;16.10;99.90
1179;DHT22;578;48.408;10.004;2022-10-31T15:05:46;15.90;99.90
1179;DHT22;578;48.408;10.004;2022-10-31T15:08:27;15.80;99.90
1179;DHT22;578;48.408;10.004;2022-10-31T15:10:54;15.70;99.90
1179;DHT22;578;48.408;10.004;2022-10-31T15:13:21;15.60;99.90
1179;DHT22;578;48.408;10.004;2022-10-31T15:15:49;15.50;99.90
1179;DHT22;578;48.408;10.004;2022-10-31T15:18:21;15.40;99.90
1179;DHT22;578;48.408;10.004;2022-10-31T15:20:50;15.30;99.90
1179;DHT22;578;48.408;10.004;2022-10-31T15:23:21;15.30;99.90
1179;DHT22;578;48.408;10.004;2022-10-31T15:25:49;15.10;99.90
1179;DHT22;578;48.408;10.004;2022-10-31T15:28:21;15.00;99.90
1179;DHT22;578;48.408;10.004;2022-10-31T15:30:53;14.80;99.90
1179;DHT22;578;48.408;10.004;2022-10-31T15:33:23;14.50;99.90
1179;DHT22;578;48.408;10.004;2022-10-31T15:35:57;14.40;99.90
1179;DHT22;578;48.408;10.004;2022-10-31T15:38:25;14.10;99.90
1179;DHT22;578;48.408;10.004;2022-10-31T15:40:57;14.10;99.90
1179;DHT22;578;48.408;10.004;2022-10-31T15:43:32;13.80;99.90
1179;DHT22;578;48.408;10.004;2022-10-31T15:46:00;13.70;99.90
1179;DHT22;578;48.408;10.004;2022-10-31T15:48:29;13.60;99.90
1179;DHT22;578;48.408;10.004;2022-10-31T15:50:59;13.40;99.90
1179;DHT22;578;48.408;10.004;2022-10-31T15:53:33;13.30;99.90
1179;DHT22;578;48.408;10.004;2022-10-31T15:56:04;13.20;99.90
1179;DHT22;578;48.408;10.004;2022-10-31T15:58:33;13.00;99.90
1179;DHT22;578;48.408;10.004;2022-10-31T16:01:18;12.80;99.90
1179;DHT22;578;48.408;10.004;2022-10-31T16:03:58;12.70;99.90
1179;DHT22;578;48.408;10.004;2022-10-31T16:06:26;12.60;99.90
1179;DHT22;578;48.408;10.004;2022-10-31T16:08:52;12.50;99.90
1179;DHT22;578;48.408;10.004;2022-10-31T16:11:24;12.50;99.90
1179;DHT22;578;48.408;10.004;2022-10-31T16:13:57;12.40;99.90
1179;DHT22;578;48.408;10.004;2022-10-31T16:16:25;12.30;99.90
1179;DHT22;578;48.408;10.004;2022-10-31T16:18:54;12.10;99.90
1179;DHT22;578;48.408;10.004;2022-10-31T16:21:28;12.10;99.90
1179;DHT22;578;48.408;10.004;2022-10-31T16:23:59;12.10;99.90
1179;DHT22;578;48.408;10.004;2022-10-31T16:26:27;12.00;99.90
1179;DHT22;578;48.408;10.004;2022-10-31T16:28:55;11.80;99.90
1179;DHT22;578;48.408;10.004;2022-10-31T16:31:28;11.80;99.90
1179;DHT22;578;48.408;10.004;2022-10-31T16:34:04;11.70;99.90
1179;DHT22;578;48.408;10.004;2022-10-31T16:36:33;11.60;99.90
1179;DHT22;578;48.408;10.004;2022-10-31T16:39:02;11.50;99.90